Lode — SFC9613 — position and weather

sailwx.info

Track history (hours):
 
Tides and Currents Weather Stations Pressure Air Temp Water Temp Dewpoint Dewpoint Depression Visibility Wind Speed Wind Dir Waves Ship Positions

Lode

Last reported at 2016-Aug-25 04:31 UTC. Time now 2016-Aug-25 06:18 UTC.
Position N 57°42' E 011°57'.

Length 11 m.

Type: Dredging. MMSI: 265680440.

Date/timePositionNaut miles runAvg speedWind from/ knotsBaromVisibWave heightAir tempDewpointWater temp
2016-Aug-25 04:31N 57°42' E 011°57'0 0.0
2016-Aug-25 03:31N 57°42' E 011°57'0 0.0
2016-Aug-25 02:31N 57°42' E 011°57'0 0.0
2016-Aug-25 01:31N 57°42' E 011°57'0 0.0
2016-Aug-25 00:31N 57°42' E 011°57'0 0.0
2016-Aug-24 23:31N 57°42' E 011°57'0 0.0
2016-Aug-24 22:31N 57°42' E 011°57'0 0.0
2016-Aug-24 21:31N 57°42' E 011°57'0 0.0
2016-Aug-24 20:31N 57°42' E 011°57'0 0.0
2016-Aug-24 19:31N 57°42' E 011°57'0 0.0
2016-Aug-24 18:31N 57°42' E 011°57'3 3.1
2016-Aug-24 17:33N 57°41' E 011°52'8 8.1
2016-Aug-24 16:33N 57°33' E 011°50'2 1.9
2016-Aug-24 15:32N 57°34' E 011°48'7 7.0
2016-Aug-24 14:33N 57°41' E 011°52'3 2.8
2016-Aug-24 13:29N 57°42' E 011°57'0 0.0
2016-Aug-24 12:32N 57°42' E 011°57'0 0.0
2016-Aug-24 11:32N 57°42' E 011°57'0 0.0
2016-Aug-24 10:32N 57°42' E 011°57'0 0.0
2016-Aug-24 09:32N 57°42' E 011°57'0 0.0
2016-Aug-24 08:32N 57°42' E 011°57'0 0.0
2016-Aug-24 07:32N 57°42' E 011°57'0 0.0
2016-Aug-24 06:32N 57°42' E 011°57'0 0.0
2016-Aug-24 04:31N 57°42' E 011°57'0 0.0
2016-Aug-24 03:31N 57°42' E 011°57'0 0.0
2016-Aug-24 02:31N 57°42' E 011°57'0 0.0
2016-Aug-24 01:31N 57°42' E 011°57'0 0.0
2016-Aug-24 00:31N 57°42' E 011°57'0 0.0
2016-Aug-23 23:31N 57°42' E 011°57'0 0.0
2016-Aug-23 22:31N 57°42' E 011°57'0 0.0
2016-Aug-23 21:31N 57°42' E 011°57'0 0.0
2016-Aug-23 20:31N 57°42' E 011°57'1 1.2
2016-Aug-23 19:33N 57°42' E 011°55'2120.6
2016-Aug-23 18:33N 57°26' E 011°30'5 1.0
2016-Aug-23 14:04N 57°23' E 011°23'3 4.9
2016-Aug-23 13:29N 57°25' E 011°27'3 2.9
2016-Aug-23 12:33N 57°26' E 011°32'5 4.9
2016-Aug-23 11:33N 57°29' E 011°39'3 3.0
2016-Aug-23 10:33N 57°31' E 011°43'4 3.6
2016-Aug-23 09:33N 57°32' E 011°49'9 8.8
2016-Aug-23 08:33N 57°41' E 011°52'3 2.8
2016-Aug-23 07:33N 57°42' E 011°57'0 0.0
2016-Aug-23 06:33N 57°42' E 011°57'0 0.0
2016-Aug-23 05:33N 57°42' E 011°57'0 0.0
2016-Aug-23 04:31N 57°42' E 011°57'0 0.0
2016-Aug-23 03:31N 57°42' E 011°57'0 0.0
2016-Aug-23 02:31N 57°42' E 011°57'0 0.0
2016-Aug-23 01:31N 57°42' E 011°57'0 0.0
2016-Aug-23 00:31N 57°42' E 011°57'0 0.0
2016-Aug-22 23:31N 57°42' E 011°57'0 0.0
2016-Aug-22 22:31N 57°42' E 011°57'0 0.0
2016-Aug-22 21:31N 57°42' E 011°57'0 0.0
2016-Aug-22 20:31N 57°42' E 011°57'0 0.0
2016-Aug-22 19:31N 57°42' E 011°57'4 4.7
2016-Aug-22 18:34N 57°40' E 011°50'8 7.9
2016-Aug-22 17:33N 57°32' E 011°49'1413.8
2016-Aug-22 16:33N 57°25' E 011°27'1 0.2
2016-Aug-22 11:31N 57°25' E 011°28'4 4.2
2016-Aug-22 10:32N 57°27' E 011°34'4 4.1
2016-Aug-22 09:33N 57°30' E 011°40'1 1.1
2016-Aug-22 08:31N 57°30' E 011°41'0 0.1
2016-Aug-22 07:32N 57°30' E 011°41'2 2.3
2016-Aug-22 06:33N 57°31' E 011°45'1312.7
2016-Aug-22 05:32N 57°42' E 011°57'0 0.0
2016-Aug-22 04:32N 57°42' E 011°57'0 0.0
2016-Aug-22 03:32N 57°42' E 011°57'0 0.0
2016-Aug-22 02:32N 57°42' E 011°57'0 0.0
2016-Aug-22 01:32N 57°42' E 011°57'0 0.0
2016-Aug-22 00:32N 57°42' E 011°57'0 0.0
2016-Aug-21 23:32N 57°42' E 011°57'0 0.0
2016-Aug-21 22:32N 57°42' E 011°57'0 0.0
2016-Aug-21 21:32N 57°42' E 011°57'0 0.0
2016-Aug-21 20:32N 57°42' E 011°57'0 0.0
2016-Aug-21 19:32N 57°42' E 011°57'0 0.0
2016-Aug-21 18:32N 57°42' E 011°57'0 0.0
2016-Aug-21 17:32N 57°42' E 011°57'0 0.0
2016-Aug-21 16:32N 57°42' E 011°57'0 0.0
2016-Aug-21 15:32N 57°42' E 011°57'0 0.0
2016-Aug-21 14:32N 57°42' E 011°57'0 0.0
2016-Aug-21 13:32N 57°42' E 011°57'0 0.0
2016-Aug-21 12:32N 57°42' E 011°57'0 0.0
2016-Aug-21 11:32N 57°42' E 011°57'0 0.0
2016-Aug-21 10:32N 57°42' E 011°57'0 0.0
2016-Aug-21 09:32N 57°42' E 011°57'0 0.0
2016-Aug-21 08:32N 57°42' E 011°57'0 0.0
2016-Aug-21 07:32N 57°42' E 011°57'0 0.0
2016-Aug-21 06:32N 57°42' E 011°57'0 0.0
2016-Aug-21 05:32N 57°42' E 011°57'0 0.0
2016-Aug-21 04:32N 57°42' E 011°57'0 0.0
2016-Aug-21 03:32N 57°42' E 011°57'0 0.0
2016-Aug-21 02:32N 57°42' E 011°57'0 0.0
2016-Aug-21 01:32N 57°42' E 011°57'0 0.0
2016-Aug-21 00:32N 57°42' E 011°57'0 0.0
2016-Aug-20 23:32N 57°42' E 011°57'0 0.0
2016-Aug-20 22:32N 57°42' E 011°57'0 0.0
2016-Aug-20 21:32N 57°42' E 011°57'0 0.0
2016-Aug-20 20:32N 57°42' E 011°57'0 0.0
2016-Aug-20 19:32N 57°42' E 011°57'0 0.0
2016-Aug-20 18:29N 57°42' E 011°57'0 0.0
2016-Aug-20 17:32N 57°42' E 011°57'0 0.0
2016-Aug-20 16:32N 57°42' E 011°57'0 0.0
2016-Aug-20 15:33N 57°42' E 011°57'0 0.0
2016-Aug-20 14:33N 57°42' E 011°57'0 0.0
2016-Aug-20 13:33N 57°42' E 011°57'0 0.0
2016-Aug-20 12:33N 57°42' E 011°57'0 0.0
2016-Aug-20 11:33N 57°42' E 011°57'0 0.0
2016-Aug-20 10:33N 57°42' E 011°57'0 0.0
2016-Aug-20 09:33N 57°42' E 011°57'0 0.0
2016-Aug-20 08:33N 57°42' E 011°57'0 0.0
2016-Aug-20 07:33N 57°42' E 011°57'0 0.0
2016-Aug-20 06:33N 57°42' E 011°57'0 0.0
2016-Aug-20 05:33N 57°42' E 011°57'0 0.0
2016-Aug-20 04:33N 57°42' E 011°57'0 0.0
2016-Aug-20 03:33N 57°42' E 011°57'0 0.0
2016-Aug-20 02:33N 57°42' E 011°57'0 0.0
2016-Aug-20 01:33N 57°42' E 011°57'0 0.0
2016-Aug-20 00:33N 57°42' E 011°57'0 0.0
2016-Aug-19 23:33N 57°42' E 011°57'0 0.0
2016-Aug-19 22:33N 57°42' E 011°57'0 0.0
2016-Aug-19 21:33N 57°42' E 011°57'0 0.0
2016-Aug-19 20:33N 57°42' E 011°57'0 0.0
2016-Aug-19 19:30N 57°42' E 011°57'1 1.5
2016-Aug-19 18:33N 57°42' E 011°54'1212.3
2016-Aug-19 17:33N 57°31' E 011°43'4 3.8
2016-Aug-19 16:32N 57°28' E 011°38'4 4.4
2016-Aug-19 15:33N 57°26' E 011°31'4 4.0
2016-Aug-19 14:29N 57°23' E 011°25'2 0.6
2016-Aug-19 11:28N 57°23' E 011°22'3 3.7
2016-Aug-19 10:33N 57°24' E 011°27'4 4.2
2016-Aug-19 09:33N 57°27' E 011°34'4 3.9
2016-Aug-19 08:32N 57°30' E 011°39'2 1.7
2016-Aug-19 07:33N 57°30' E 011°42'1 0.9
2016-Aug-19 06:33N 57°31' E 011°43'1313.4
2016-Aug-19 05:33N 57°42' E 011°56'0 0.1
2016-Aug-19 04:32N 57°42' E 011°57'0 0.0
2016-Aug-19 03:32N 57°42' E 011°57'0 0.0
2016-Aug-19 02:32N 57°42' E 011°57'0 0.0
2016-Aug-19 01:32N 57°42' E 011°57'0 0.0
2016-Aug-19 00:32N 57°42' E 011°57'0 0.0
2016-Aug-18 23:32N 57°42' E 011°57'0 0.0
2016-Aug-18 22:32N 57°42' E 011°57'0 0.0
2016-Aug-18 21:32N 57°42' E 011°57'0 0.0
2016-Aug-18 20:32N 57°42' E 011°57'0 0.0
2016-Aug-18 19:32N 57°42' E 011°57'0 0.0
2016-Aug-18 18:32N 57°42' E 011°57'0 0.0
2016-Aug-18 17:32N 57°42' E 011°57'0 0.0
2016-Aug-18 16:32N 57°42' E 011°57'0 0.0
2016-Aug-18 15:32N 57°42' E 011°57'0 0.0
2016-Aug-18 14:32N 57°42' E 011°57'0 0.0
2016-Aug-18 13:32N 57°42' E 011°57'0 0.0
2016-Aug-18 12:32N 57°42' E 011°57'0 0.0
2016-Aug-18 11:32N 57°42' E 011°57'0 0.0
2016-Aug-18 10:32N 57°42' E 011°57'0 0.0
2016-Aug-18 09:32N 57°42' E 011°57'0 0.0
2016-Aug-18 08:29N 57°42' E 011°57'0 0.0
2016-Aug-18 07:32N 57°42' E 011°57'0 0.0
2016-Aug-18 06:32N 57°42' E 011°57'0 0.0
2016-Aug-18 05:32N 57°42' E 011°57'0 0.0
2016-Aug-18 04:32N 57°42' E 011°57'0 0.0
2016-Aug-18 03:32N 57°42' E 011°57'0 0.0
2016-Aug-18 02:32N 57°42' E 011°57'0 0.0
2016-Aug-18 01:32N 57°42' E 011°57'0 0.0
2016-Aug-18 00:32N 57°42' E 011°57'0 0.0
2016-Aug-17 23:32N 57°42' E 011°57'0 0.0
2016-Aug-17 22:32N 57°42' E 011°57'0 0.0
2016-Aug-17 21:32N 57°42' E 011°57'0 0.0
2016-Aug-17 20:32N 57°42' E 011°57'0 0.0
2016-Aug-17 19:32N 57°42' E 011°57'0 0.0
2016-Aug-17 18:32N 57°42' E 011°57'7 6.8
2016-Aug-17 17:33N 57°37' E 011°49'4 4.1
2016-Aug-17 16:33N 57°33' E 011°50'5 5.1
2016-Aug-17 15:32N 57°30' E 011°42'1 0.5
2016-Aug-17 13:33N 57°29' E 011°42'1 1.2
2016-Aug-17 12:34N 57°30' E 011°41'1 1.1
2016-Aug-17 11:31N 57°31' E 011°42'1211.9
2016-Aug-17 10:33N 57°41' E 011°53'0 0.4
2016-Aug-17 09:33N 57°41' E 011°52'3 3.2
2016-Aug-17 08:33N 57°43' E 011°58'0 0.0
2016-Aug-17 07:32N 57°43' E 011°58'0 0.0
2016-Aug-17 06:32N 57°43' E 011°58'1 0.7
2016-Aug-17 05:33N 57°42' E 011°57'0 0.0
2016-Aug-17 04:30N 57°42' E 011°57'0 0.0
2016-Aug-17 03:33N 57°42' E 011°57'0 0.0
2016-Aug-17 02:33N 57°42' E 011°57'0 0.0
2016-Aug-17 01:33N 57°42' E 011°57'0 0.0
2016-Aug-17 00:33N 57°42' E 011°57'0 0.0
2016-Aug-16 23:33N 57°42' E 011°57'0 0.0
2016-Aug-16 22:33N 57°42' E 011°57'0 0.0
2016-Aug-16 21:33N 57°42' E 011°57'0 0.0
2016-Aug-16 20:33N 57°42' E 011°57'0 0.0
2016-Aug-16 19:33N 57°42' E 011°57'0 0.0
2016-Aug-16 18:33N 57°42' E 011°57'0 0.0
2016-Aug-16 17:33N 57°42' E 011°57'0 0.0
2016-Aug-16 16:30N 57°42' E 011°57'1 0.8
2016-Aug-16 15:32N 57°43' E 011°58'0 0.0
2016-Aug-16 14:33N 57°43' E 011°58'1 0.7
2016-Aug-16 13:32N 57°42' E 011°57'0 0.0
2016-Aug-16 12:32N 57°42' E 011°57'0 0.0
2016-Aug-16 11:32N 57°42' E 011°57'0 0.0
2016-Aug-16 10:32N 57°42' E 011°57'0 0.0
2016-Aug-16 09:32N 57°42' E 011°57'0 0.0
2016-Aug-16 08:32N 57°42' E 011°57'0 0.0
2016-Aug-16 07:32N 57°42' E 011°57'0 0.0
2016-Aug-16 04:32N 57°42' E 011°57'0 0.0
2016-Aug-16 03:32N 57°42' E 011°57'0 0.0
2016-Aug-16 02:32N 57°42' E 011°57'0 0.0
2016-Aug-16 01:32N 57°42' E 011°57'0 0.0
2016-Aug-16 00:32N 57°42' E 011°57'0 0.0
2016-Aug-15 23:32N 57°42' E 011°57'0 0.0
2016-Aug-15 22:32N 57°42' E 011°57'0 0.0
2016-Aug-15 21:32N 57°42' E 011°57'0 0.0
2016-Aug-15 20:32N 57°42' E 011°57'0 0.0
2016-Aug-15 19:32N 57°42' E 011°57'0 0.0
2016-Aug-15 18:32N 57°42' E 011°57'0 0.0
2016-Aug-15 17:32N 57°42' E 011°57'0 0.0
2016-Aug-15 16:32N 57°42' E 011°57'0 0.0
2016-Aug-15 15:32N 57°42' E 011°57'0 0.0
2016-Aug-15 14:32N 57°42' E 011°57'0 0.0
2016-Aug-15 13:31N 57°42' E 011°57'0 0.0
2016-Aug-15 12:31N 57°42' E 011°57'0 0.0
2016-Aug-15 11:31N 57°42' E 011°57'3 2.8
2016-Aug-15 10:32N 57°41' E 011°52'3 2.7
2016-Aug-15 09:31N 57°42' E 011°57'0 0.0
2016-Aug-15 08:31N 57°42' E 011°57'0 0.0
2016-Aug-15 07:31N 57°42' E 011°57'0 0.0
2016-Aug-15 06:31N 57°42' E 011°57'0 0.0
2016-Aug-15 04:32N 57°42' E 011°57'  
Track history (hours):
 
Tides and Currents Weather Stations Pressure Air Temp Water Temp Dewpoint Dewpoint Depression Visibility Wind Speed Wind Dir Waves Ship Positions

Lode

Last reported at 2016-Aug-25 04:31 UTC. Time now 2016-Aug-25 06:18 UTC.
Position N 57°42' E 011°57'.

Length 11 m.

Type: Dredging. MMSI: 265680440.

Date/timePositionNaut miles runAvg speedWind from/ knotsBaromVisibWave heightAir tempDewpointWater temp
2016-Aug-25 04:31N 57°42' E 011°57'0 0.0
2016-Aug-25 03:31N 57°42' E 011°57'0 0.0
2016-Aug-25 02:31N 57°42' E 011°57'0 0.0
2016-Aug-25 01:31N 57°42' E 011°57'0 0.0
2016-Aug-25 00:31N 57°42' E 011°57'0 0.0
2016-Aug-24 23:31N 57°42' E 011°57'0 0.0
2016-Aug-24 22:31N 57°42' E 011°57'0 0.0
2016-Aug-24 21:31N 57°42' E 011°57'0 0.0
2016-Aug-24 20:31N 57°42' E 011°57'0 0.0
2016-Aug-24 19:31N 57°42' E 011°57'0 0.0
2016-Aug-24 18:31N 57°42' E 011°57'3 3.1
2016-Aug-24 17:33N 57°41' E 011°52'8 8.1
2016-Aug-24 16:33N 57°33' E 011°50'2 1.9
2016-Aug-24 15:32N 57°34' E 011°48'7 7.0
2016-Aug-24 14:33N 57°41' E 011°52'3 2.8
2016-Aug-24 13:29N 57°42' E 011°57'0 0.0
2016-Aug-24 12:32N 57°42' E 011°57'0 0.0
2016-Aug-24 11:32N 57°42' E 011°57'0 0.0
2016-Aug-24 10:32N 57°42' E 011°57'0 0.0
2016-Aug-24 09:32N 57°42' E 011°57'0 0.0
2016-Aug-24 08:32N 57°42' E 011°57'0 0.0
2016-Aug-24 07:32N 57°42' E 011°57'0 0.0
2016-Aug-24 06:32N 57°42' E 011°57'0 0.0
2016-Aug-24 04:31N 57°42' E 011°57'0 0.0
2016-Aug-24 03:31N 57°42' E 011°57'0 0.0
2016-Aug-24 02:31N 57°42' E 011°57'0 0.0
2016-Aug-24 01:31N 57°42' E 011°57'0 0.0
2016-Aug-24 00:31N 57°42' E 011°57'0 0.0
2016-Aug-23 23:31N 57°42' E 011°57'0 0.0
2016-Aug-23 22:31N 57°42' E 011°57'0 0.0
2016-Aug-23 21:31N 57°42' E 011°57'0 0.0
2016-Aug-23 20:31N 57°42' E 011°57'1 1.2
2016-Aug-23 19:33N 57°42' E 011°55'2120.6
2016-Aug-23 18:33N 57°26' E 011°30'5 1.0
2016-Aug-23 14:04N 57°23' E 011°23'3 4.9
2016-Aug-23 13:29N 57°25' E 011°27'3 2.9
2016-Aug-23 12:33N 57°26' E 011°32'5 4.9
2016-Aug-23 11:33N 57°29' E 011°39'3 3.0
2016-Aug-23 10:33N 57°31' E 011°43'4 3.6
2016-Aug-23 09:33N 57°32' E 011°49'9 8.8
2016-Aug-23 08:33N 57°41' E 011°52'3 2.8
2016-Aug-23 07:33N 57°42' E 011°57'0 0.0
2016-Aug-23 06:33N 57°42' E 011°57'0 0.0
2016-Aug-23 05:33N 57°42' E 011°57'0 0.0
2016-Aug-23 04:31N 57°42' E 011°57'0 0.0
2016-Aug-23 03:31N 57°42' E 011°57'0 0.0
2016-Aug-23 02:31N 57°42' E 011°57'0 0.0
2016-Aug-23 01:31N 57°42' E 011°57'0 0.0
2016-Aug-23 00:31N 57°42' E 011°57'0 0.0
2016-Aug-22 23:31N 57°42' E 011°57'0 0.0
2016-Aug-22 22:31N 57°42' E 011°57'0 0.0
2016-Aug-22 21:31N 57°42' E 011°57'0 0.0
2016-Aug-22 20:31N 57°42' E 011°57'0 0.0
2016-Aug-22 19:31N 57°42' E 011°57'4 4.7
2016-Aug-22 18:34N 57°40' E 011°50'8 7.9
2016-Aug-22 17:33N 57°32' E 011°49'1413.8
2016-Aug-22 16:33N 57°25' E 011°27'1 0.2
2016-Aug-22 11:31N 57°25' E 011°28'4 4.2
2016-Aug-22 10:32N 57°27' E 011°34'4 4.1
2016-Aug-22 09:33N 57°30' E 011°40'1 1.1
2016-Aug-22 08:31N 57°30' E 011°41'0 0.1
2016-Aug-22 07:32N 57°30' E 011°41'2 2.3
2016-Aug-22 06:33N 57°31' E 011°45'1312.7
2016-Aug-22 05:32N 57°42' E 011°57'0 0.0
2016-Aug-22 04:32N 57°42' E 011°57'0 0.0
2016-Aug-22 03:32N 57°42' E 011°57'0 0.0
2016-Aug-22 02:32N 57°42' E 011°57'0 0.0
2016-Aug-22 01:32N 57°42' E 011°57'0 0.0
2016-Aug-22 00:32N 57°42' E 011°57'0 0.0
2016-Aug-21 23:32N 57°42' E 011°57'0 0.0
2016-Aug-21 22:32N 57°42' E 011°57'0 0.0
2016-Aug-21 21:32N 57°42' E 011°57'0 0.0
2016-Aug-21 20:32N 57°42' E 011°57'0 0.0
2016-Aug-21 19:32N 57°42' E 011°57'0 0.0
2016-Aug-21 18:32N 57°42' E 011°57'0 0.0
2016-Aug-21 17:32N 57°42' E 011°57'0 0.0
2016-Aug-21 16:32N 57°42' E 011°57'0 0.0
2016-Aug-21 15:32N 57°42' E 011°57'0 0.0
2016-Aug-21 14:32N 57°42' E 011°57'0 0.0
2016-Aug-21 13:32N 57°42' E 011°57'0 0.0
2016-Aug-21 12:32N 57°42' E 011°57'0 0.0
2016-Aug-21 11:32N 57°42' E 011°57'0 0.0
2016-Aug-21 10:32N 57°42' E 011°57'0 0.0
2016-Aug-21 09:32N 57°42' E 011°57'0 0.0
2016-Aug-21 08:32N 57°42' E 011°57'0 0.0
2016-Aug-21 07:32N 57°42' E 011°57'0 0.0
2016-Aug-21 06:32N 57°42' E 011°57'0 0.0
2016-Aug-21 05:32N 57°42' E 011°57'0 0.0
2016-Aug-21 04:32N 57°42' E 011°57'0 0.0
2016-Aug-21 03:32N 57°42' E 011°57'0 0.0
2016-Aug-21 02:32N 57°42' E 011°57'0 0.0
2016-Aug-21 01:32N 57°42' E 011°57'0 0.0
2016-Aug-21 00:32N 57°42' E 011°57'0 0.0
2016-Aug-20 23:32N 57°42' E 011°57'0 0.0
2016-Aug-20 22:32N 57°42' E 011°57'0 0.0
2016-Aug-20 21:32N 57°42' E 011°57'0 0.0
2016-Aug-20 20:32N 57°42' E 011°57'0 0.0
2016-Aug-20 19:32N 57°42' E 011°57'0 0.0
2016-Aug-20 18:29N 57°42' E 011°57'0 0.0
2016-Aug-20 17:32N 57°42' E 011°57'0 0.0
2016-Aug-20 16:32N 57°42' E 011°57'0 0.0
2016-Aug-20 15:33N 57°42' E 011°57'0 0.0
2016-Aug-20 14:33N 57°42' E 011°57'0 0.0
2016-Aug-20 13:33N 57°42' E 011°57'0 0.0
2016-Aug-20 12:33N 57°42' E 011°57'0 0.0
2016-Aug-20 11:33N 57°42' E 011°57'0 0.0
2016-Aug-20 10:33N 57°42' E 011°57'0 0.0
2016-Aug-20 09:33N 57°42' E 011°57'0 0.0
2016-Aug-20 08:33N 57°42' E 011°57'0 0.0
2016-Aug-20 07:33N 57°42' E 011°57'0 0.0
2016-Aug-20 06:33N 57°42' E 011°57'0 0.0
2016-Aug-20 05:33N 57°42' E 011°57'0 0.0
2016-Aug-20 04:33N 57°42' E 011°57'0 0.0
2016-Aug-20 03:33N 57°42' E 011°57'0 0.0
2016-Aug-20 02:33N 57°42' E 011°57'0 0.0
2016-Aug-20 01:33N 57°42' E 011°57'0 0.0
2016-Aug-20 00:33N 57°42' E 011°57'0 0.0
2016-Aug-19 23:33N 57°42' E 011°57'0 0.0
2016-Aug-19 22:33N 57°42' E 011°57'0 0.0
2016-Aug-19 21:33N 57°42' E 011°57'0 0.0
2016-Aug-19 20:33N 57°42' E 011°57'0 0.0
2016-Aug-19 19:30N 57°42' E 011°57'1 1.5
2016-Aug-19 18:33N 57°42' E 011°54'1212.3
2016-Aug-19 17:33N 57°31' E 011°43'4 3.8
2016-Aug-19 16:32N 57°28' E 011°38'4 4.4
2016-Aug-19 15:33N 57°26' E 011°31'4 4.0
2016-Aug-19 14:29N 57°23' E 011°25'2 0.6
2016-Aug-19 11:28N 57°23' E 011°22'3 3.7
2016-Aug-19 10:33N 57°24' E 011°27'4 4.2
2016-Aug-19 09:33N 57°27' E 011°34'4 3.9
2016-Aug-19 08:32N 57°30' E 011°39'2 1.7
2016-Aug-19 07:33N 57°30' E 011°42'1 0.9
2016-Aug-19 06:33N 57°31' E 011°43'1313.4
2016-Aug-19 05:33N 57°42' E 011°56'0 0.1
2016-Aug-19 04:32N 57°42' E 011°57'0 0.0
2016-Aug-19 03:32N 57°42' E 011°57'0 0.0
2016-Aug-19 02:32N 57°42' E 011°57'0 0.0
2016-Aug-19 01:32N 57°42' E 011°57'0 0.0
2016-Aug-19 00:32N 57°42' E 011°57'0 0.0
2016-Aug-18 23:32N 57°42' E 011°57'0 0.0
2016-Aug-18 22:32N 57°42' E 011°57'0 0.0
2016-Aug-18 21:32N 57°42' E 011°57'0 0.0
2016-Aug-18 20:32N 57°42' E 011°57'0 0.0
2016-Aug-18 19:32N 57°42' E 011°57'0 0.0
2016-Aug-18 18:32N 57°42' E 011°57'0 0.0
2016-Aug-18 17:32N 57°42' E 011°57'0 0.0
2016-Aug-18 16:32N 57°42' E 011°57'0 0.0
2016-Aug-18 15:32N 57°42' E 011°57'0 0.0
2016-Aug-18 14:32N 57°42' E 011°57'0 0.0
2016-Aug-18 13:32N 57°42' E 011°57'0 0.0
2016-Aug-18 12:32N 57°42' E 011°57'0 0.0
2016-Aug-18 11:32N 57°42' E 011°57'0 0.0
2016-Aug-18 10:32N 57°42' E 011°57'0 0.0
2016-Aug-18 09:32N 57°42' E 011°57'0 0.0
2016-Aug-18 08:29N 57°42' E 011°57'0 0.0
2016-Aug-18 07:32N 57°42' E 011°57'0 0.0
2016-Aug-18 06:32N 57°42' E 011°57'0 0.0
2016-Aug-18 05:32N 57°42' E 011°57'0 0.0
2016-Aug-18 04:32N 57°42' E 011°57'0 0.0
2016-Aug-18 03:32N 57°42' E 011°57'0 0.0
2016-Aug-18 02:32N 57°42' E 011°57'0 0.0
2016-Aug-18 01:32N 57°42' E 011°57'0 0.0
2016-Aug-18 00:32N 57°42' E 011°57'0 0.0
2016-Aug-17 23:32N 57°42' E 011°57'0 0.0
2016-Aug-17 22:32N 57°42' E 011°57'0 0.0
2016-Aug-17 21:32N 57°42' E 011°57'0 0.0
2016-Aug-17 20:32N 57°42' E 011°57'0 0.0
2016-Aug-17 19:32N 57°42' E 011°57'0 0.0
2016-Aug-17 18:32N 57°42' E 011°57'7 6.8
2016-Aug-17 17:33N 57°37' E 011°49'4 4.1
2016-Aug-17 16:33N 57°33' E 011°50'5 5.1
2016-Aug-17 15:32N 57°30' E 011°42'1 0.5
2016-Aug-17 13:33N 57°29' E 011°42'1 1.2
2016-Aug-17 12:34N 57°30' E 011°41'1 1.1
2016-Aug-17 11:31N 57°31' E 011°42'1211.9
2016-Aug-17 10:33N 57°41' E 011°53'0 0.4
2016-Aug-17 09:33N 57°41' E 011°52'3 3.2
2016-Aug-17 08:33N 57°43' E 011°58'0 0.0
2016-Aug-17 07:32N 57°43' E 011°58'0 0.0
2016-Aug-17 06:32N 57°43' E 011°58'1 0.7
2016-Aug-17 05:33N 57°42' E 011°57'0 0.0
2016-Aug-17 04:30N 57°42' E 011°57'0 0.0
2016-Aug-17 03:33N 57°42' E 011°57'0 0.0
2016-Aug-17 02:33N 57°42' E 011°57'0 0.0
2016-Aug-17 01:33N 57°42' E 011°57'0 0.0
2016-Aug-17 00:33N 57°42' E 011°57'0 0.0
2016-Aug-16 23:33N 57°42' E 011°57'0 0.0
2016-Aug-16 22:33N 57°42' E 011°57'0 0.0
2016-Aug-16 21:33N 57°42' E 011°57'0 0.0
2016-Aug-16 20:33N 57°42' E 011°57'0 0.0
2016-Aug-16 19:33N 57°42' E 011°57'0 0.0
2016-Aug-16 18:33N 57°42' E 011°57'0 0.0
2016-Aug-16 17:33N 57°42' E 011°57'0 0.0
2016-Aug-16 16:30N 57°42' E 011°57'1 0.8
2016-Aug-16 15:32N 57°43' E 011°58'0 0.0
2016-Aug-16 14:33N 57°43' E 011°58'1 0.7
2016-Aug-16 13:32N 57°42' E 011°57'0 0.0
2016-Aug-16 12:32N 57°42' E 011°57'0 0.0
2016-Aug-16 11:32N 57°42' E 011°57'0 0.0
2016-Aug-16 10:32N 57°42' E 011°57'0 0.0
2016-Aug-16 09:32N 57°42' E 011°57'0 0.0
2016-Aug-16 08:32N 57°42' E 011°57'0 0.0
2016-Aug-16 07:32N 57°42' E 011°57'0 0.0
2016-Aug-16 04:32N 57°42' E 011°57'0 0.0
2016-Aug-16 03:32N 57°42' E 011°57'0 0.0
2016-Aug-16 02:32N 57°42' E 011°57'0 0.0
2016-Aug-16 01:32N 57°42' E 011°57'0 0.0
2016-Aug-16 00:32N 57°42' E 011°57'0 0.0
2016-Aug-15 23:32N 57°42' E 011°57'0 0.0
2016-Aug-15 22:32N 57°42' E 011°57'0 0.0
2016-Aug-15 21:32N 57°42' E 011°57'0 0.0
2016-Aug-15 20:32N 57°42' E 011°57'0 0.0
2016-Aug-15 19:32N 57°42' E 011°57'0 0.0
2016-Aug-15 18:32N 57°42' E 011°57'0 0.0
2016-Aug-15 17:32N 57°42' E 011°57'0 0.0
2016-Aug-15 16:32N 57°42' E 011°57'0 0.0
2016-Aug-15 15:32N 57°42' E 011°57'0 0.0
2016-Aug-15 14:32N 57°42' E 011°57'0 0.0
2016-Aug-15 13:31N 57°42' E 011°57'0 0.0
2016-Aug-15 12:31N 57°42' E 011°57'0 0.0
2016-Aug-15 11:31N 57°42' E 011°57'3 2.8
2016-Aug-15 10:32N 57°41' E 011°52'3 2.7
2016-Aug-15 09:31N 57°42' E 011°57'0 0.0
2016-Aug-15 08:31N 57°42' E 011°57'0 0.0
2016-Aug-15 07:31N 57°42' E 011°57'0 0.0
2016-Aug-15 06:31N 57°42' E 011°57'0 0.0
2016-Aug-15 04:32N 57°42' E 011°57'  

Dump ship's entire track history